sensor_id;sensor_type;location;lat;lon;timestamp;P1;durP1;ratioP1;P2;durP2;ratioP2
45730;SDS011;31440;48.584;13.460;2022-08-16T00:00:01;2.63;;;1.80;;
45730;SDS011;31440;48.584;13.460;2022-08-16T00:02:27;2.45;;;1.92;;
45730;SDS011;31440;48.584;13.460;2022-08-16T00:04:53;4.38;;;2.17;;
45730;SDS011;31440;48.584;13.460;2022-08-16T00:07:19;4.03;;;2.05;;
45730;SDS011;31440;48.584;13.460;2022-08-16T00:09:44;3.05;;;2.47;;
45730;SDS011;31440;48.584;13.460;2022-08-16T00:12:10;4.85;;;2.67;;
45730;SDS011;31440;48.584;13.460;2022-08-16T00:14:36;3.28;;;1.90;;
45730;SDS011;31440;48.584;13.460;2022-08-16T00:17:01;2.03;;;1.83;;
45730;SDS011;31440;48.584;13.460;2022-08-16T00:19:29;4.85;;;1.90;;
45730;SDS011;31440;48.584;13.460;2022-08-16T00:21:57;5.53;;;1.80;;
45730;SDS011;31440;48.584;13.460;2022-08-16T00:24:26;3.25;;;2.00;;
45730;SDS011;31440;48.584;13.460;2022-08-16T00:26:52;4.65;;;1.98;;
45730;SDS011;31440;48.584;13.460;2022-08-16T00:29:18;4.70;;;1.65;;
45730;SDS011;31440;48.584;13.460;2022-08-16T00:31:45;2.92;;;1.80;;
45730;SDS011;31440;48.584;13.460;2022-08-16T00:34:12;15.38;;;1.80;;
45730;SDS011;31440;48.584;13.460;2022-08-16T00:36:38;2.50;;;1.95;;
45730;SDS011;31440;48.584;13.460;2022-08-16T00:39:04;4.43;;;1.67;;
45730;SDS011;31440;48.584;13.460;2022-08-16T00:41:29;3.38;;;1.77;;
45730;SDS011;31440;48.584;13.460;2022-08-16T00:43:56;5.28;;;1.80;;
45730;SDS011;31440;48.584;13.460;2022-08-16T00:46:35;5.47;;;2.22;;
45730;SDS011;31440;48.584;13.460;2022-08-16T00:49:07;1.52;;;1.42;;
45730;SDS011;31440;48.584;13.460;2022-08-16T00:51:34;3.15;;;2.13;;
45730;SDS011;31440;48.584;13.460;2022-08-16T00:54:00;4.95;;;2.55;;
45730;SDS011;31440;48.584;13.460;2022-08-16T00:56:28;3.78;;;2.35;;
45730;SDS011;31440;48.584;13.460;2022-08-16T00:58:56;3.13;;;1.77;;
45730;SDS011;31440;48.584;13.460;2022-08-16T01:01:21;2.50;;;2.10;;
45730;SDS011;31440;48.584;13.460;2022-08-16T01:03:48;4.65;;;2.35;;
45730;SDS011;31440;48.584;13.460;2022-08-16T01:06:16;2.00;;;1.65;;
45730;SDS011;31440;48.584;13.460;2022-08-16T01:08:44;2.20;;;1.90;;
45730;SDS011;31440;48.584;13.460;2022-08-16T01:11:12;2.47;;;1.88;;
45730;SDS011;31440;48.584;13.460;2022-08-16T01:13:39;2.05;;;1.67;;
45730;SDS011;31440;48.584;13.460;2022-08-16T01:16:18;2.40;;;2.00;;
45730;SDS011;31440;48.584;13.460;2022-08-16T01:18:49;4.05;;;2.78;;
45730;SDS011;31440;48.584;13.460;2022-08-16T01:26:45;3.63;;;1.80;;
45730;SDS011;31440;48.584;13.460;2022-08-16T01:29:15;2.00;;;1.80;;
45730;SDS011;31440;48.584;13.460;2022-08-16T01:31:46;2.67;;;2.20;;
45730;SDS011;31440;48.584;13.460;2022-08-16T01:34:13;4.35;;;1.92;;
45730;SDS011;31440;48.584;13.460;2022-08-16T01:36:39;4.03;;;2.25;;
45730;SDS011;31440;48.584;13.460;2022-08-16T01:39:12;2.35;;;1.92;;
45730;SDS011;31440;48.584;13.460;2022-08-16T01:41:40;4.75;;;2.10;;
45730;SDS011;31440;48.584;13.460;2022-08-16T01:44:07;2.53;;;1.85;;
45730;SDS011;31440;48.584;13.460;2022-08-16T01:46:40;7.05;;;2.40;;
45730;SDS011;31440;48.584;13.460;2022-08-16T01:49:18;2.33;;;2.10;;
45730;SDS011;31440;48.584;13.460;2022-08-16T01:51:53;2.20;;;1.83;;
45730;SDS011;31440;48.584;13.460;2022-08-16T01:54:30;2.72;;;1.88;;
45730;SDS011;31440;48.584;13.460;2022-08-16T01:56:56;2.20;;;1.83;;
45730;SDS011;31440;48.584;13.460;2022-08-16T01:59:22;3.95;;;2.17;;
45730;SDS011;31440;48.584;13.460;2022-08-16T02:01:48;2.00;;;1.80;;
45730;SDS011;31440;48.584;13.460;2022-08-16T02:04:16;2.83;;;1.88;;
45730;SDS011;31440;48.584;13.460;2022-08-16T02:06:43;3.13;;;1.80;;
45730;SDS011;31440;48.584;13.460;2022-08-16T02:09:09;2.25;;;1.88;;
45730;SDS011;31440;48.584;13.460;2022-08-16T02:11:37;2.63;;;1.90;;
45730;SDS011;31440;48.584;13.460;2022-08-16T02:14:05;3.58;;;1.65;;
45730;SDS011;31440;48.584;13.460;2022-08-16T02:16:34;2.83;;;1.92;;
45730;SDS011;31440;48.584;13.460;2022-08-16T02:19:00;2.13;;;1.80;;
45730;SDS011;31440;48.584;13.460;2022-08-16T02:21:26;5.68;;;2.13;;
45730;SDS011;31440;48.584;13.460;2022-08-16T02:23:52;3.10;;;2.20;;
45730;SDS011;31440;48.584;13.460;2022-08-16T02:26:18;5.47;;;2.50;;
45730;SDS011;31440;48.584;13.460;2022-08-16T02:28:43;5.97;;;2.65;;
45730;SDS011;31440;48.584;13.460;2022-08-16T02:31:10;5.45;;;2.53;;
45730;SDS011;31440;48.584;13.460;2022-08-16T02:33:38;3.35;;;1.90;;
45730;SDS011;31440;48.584;13.460;2022-08-16T02:36:05;3.35;;;2.60;;
45730;SDS011;31440;48.584;13.460;2022-08-16T02:38:32;6.22;;;2.28;;
45730;SDS011;31440;48.584;13.460;2022-08-16T02:40:59;3.97;;;2.85;;
45730;SDS011;31440;48.584;13.460;2022-08-16T02:43:29;4.13;;;2.60;;
45730;SDS011;31440;48.584;13.460;2022-08-16T02:45:57;5.82;;;2.55;;
45730;SDS011;31440;48.584;13.460;2022-08-16T02:48:23;4.03;;;2.25;;
45730;SDS011;31440;48.584;13.460;2022-08-16T02:50:50;4.63;;;2.53;;
45730;SDS011;31440;48.584;13.460;2022-08-16T02:53:16;7.03;;;2.55;;
45730;SDS011;31440;48.584;13.460;2022-08-16T02:55:42;4.95;;;2.33;;
45730;SDS011;31440;48.584;13.460;2022-08-16T02:58:08;3.95;;;2.58;;
45730;SDS011;31440;48.584;13.460;2022-08-16T03:00:36;5.20;;;2.58;;
45730;SDS011;31440;48.584;13.460;2022-08-16T03:03:03;2.20;;;2.00;;
45730;SDS011;31440;48.584;13.460;2022-08-16T03:05:29;4.43;;;2.47;;
45730;SDS011;31440;48.584;13.460;2022-08-16T03:07:55;2.58;;;2.10;;
45730;SDS011;31440;48.584;13.460;2022-08-16T03:10:21;2.85;;;1.95;;
45730;SDS011;31440;48.584;13.460;2022-08-16T03:12:47;2.72;;;2.15;;
45730;SDS011;31440;48.584;13.460;2022-08-16T03:15:16;2.15;;;1.95;;
45730;SDS011;31440;48.584;13.460;2022-08-16T03:17:43;5.53;;;2.25;;
45730;SDS011;31440;48.584;13.460;2022-08-16T03:20:10;7.57;;;2.30;;
45730;SDS011;31440;48.584;13.460;2022-08-16T03:22:38;4.88;;;2.80;;
45730;SDS011;31440;48.584;13.460;2022-08-16T03:25:11;2.40;;;2.20;;
45730;SDS011;31440;48.584;13.460;2022-08-16T03:27:41;4.22;;;2.50;;
45730;SDS011;31440;48.584;13.460;2022-08-16T03:30:24;3.10;;;2.70;;
45730;SDS011;31440;48.584;13.460;2022-08-16T03:32:55;4.95;;;2.42;;
45730;SDS011;31440;48.584;13.460;2022-08-16T03:35:25;4.95;;;2.80;;
45730;SDS011;31440;48.584;13.460;2022-08-16T03:37:54;3.72;;;2.97;;
45730;SDS011;31440;48.584;13.460;2022-08-16T03:40:22;4.30;;;2.97;;
45730;SDS011;31440;48.584;13.460;2022-08-16T03:42:48;5.95;;;2.90;;
45730;SDS011;31440;48.584;13.460;2022-08-16T03:45:14;3.65;;;2.58;;
45730;SDS011;31440;48.584;13.460;2022-08-16T03:47:41;3.92;;;3.22;;
45730;SDS011;31440;48.584;13.460;2022-08-16T03:50:08;5.22;;;2.90;;
45730;SDS011;31440;48.584;13.460;2022-08-16T03:52:33;7.78;;;3.00;;
45730;SDS011;31440;48.584;13.460;2022-08-16T03:55:03;5.63;;;2.88;;
45730;SDS011;31440;48.584;13.460;2022-08-16T03:57:29;4.85;;;2.88;;
45730;SDS011;31440;48.584;13.460;2022-08-16T03:59:55;3.30;;;2.88;;
45730;SDS011;31440;48.584;13.460;2022-08-16T04:02:21;3.63;;;3.15;;
45730;SDS011;31440;48.584;13.460;2022-08-16T04:04:47;4.28;;;3.08;;
45730;SDS011;31440;48.584;13.460;2022-08-16T04:07:14;3.20;;;2.10;;
45730;SDS011;31440;48.584;13.460;2022-08-16T04:09:40;5.25;;;2.50;;
45730;SDS011;31440;48.584;13.460;2022-08-16T04:12:08;4.05;;;2.55;;
45730;SDS011;31440;48.584;13.460;2022-08-16T04:14:36;3.67;;;2.13;;
45730;SDS011;31440;48.584;13.460;2022-08-16T04:17:02;4.78;;;2.53;;
45730;SDS011;31440;48.584;13.460;2022-08-16T04:19:34;4.97;;;3.08;;
45730;SDS011;31440;48.584;13.460;2022-08-16T04:22:00;4.57;;;3.00;;
45730;SDS011;31440;48.584;13.460;2022-08-16T04:24:31;4.68;;;2.33;;
45730;SDS011;31440;48.584;13.460;2022-08-16T04:26:57;4.32;;;2.65;;
45730;SDS011;31440;48.584;13.460;2022-08-16T04:29:23;3.60;;;2.80;;
45730;SDS011;31440;48.584;13.460;2022-08-16T04:31:50;3.22;;;2.60;;
45730;SDS011;31440;48.584;13.460;2022-08-16T04:34:16;6.78;;;2.83;;
45730;SDS011;31440;48.584;13.460;2022-08-16T04:36:45;4.95;;;2.40;;
45730;SDS011;31440;48.584;13.460;2022-08-16T04:39:10;5.85;;;3.35;;
45730;SDS011;31440;48.584;13.460;2022-08-16T04:41:37;3.22;;;2.50;;
45730;SDS011;31440;48.584;13.460;2022-08-16T04:44:04;2.53;;;2.17;;
45730;SDS011;31440;48.584;13.460;2022-08-16T04:46:30;4.00;;;2.13;;
45730;SDS011;31440;48.584;13.460;2022-08-16T04:48:56;3.90;;;2.83;;
45730;SDS011;31440;48.584;13.460;2022-08-16T04:51:23;5.18;;;3.28;;
45730;SDS011;31440;48.584;13.460;2022-08-16T04:53:49;6.68;;;3.03;;
45730;SDS011;31440;48.584;13.460;2022-08-16T04:56:16;3.60;;;3.15;;
45730;SDS011;31440;48.584;13.460;2022-08-16T04:58:44;4.20;;;2.63;;
45730;SDS011;31440;48.584;13.460;2022-08-16T05:01:10;3.40;;;2.55;;
45730;SDS011;31440;48.584;13.460;2022-08-16T05:03:36;4.55;;;3.22;;
45730;SDS011;31440;48.584;13.460;2022-08-16T05:06:02;4.47;;;2.80;;
45730;SDS011;31440;48.584;13.460;2022-08-16T05:08:29;4.82;;;2.85;;
45730;SDS011;31440;48.584;13.460;2022-08-16T05:11:00;4.28;;;2.97;;
45730;SDS011;31440;48.584;13.460;2022-08-16T05:13:28;5.63;;;2.72;;
45730;SDS011;31440;48.584;13.460;2022-08-16T05:15:55;4.13;;;3.00;;
45730;SDS011;31440;48.584;13.460;2022-08-16T05:18:23;5.68;;;3.17;;
45730;SDS011;31440;48.584;13.460;2022-08-16T05:20:53;5.25;;;2.88;;
45730;SDS011;31440;48.584;13.460;2022-08-16T05:23:19;4.25;;;2.78;;
45730;SDS011;31440;48.584;13.460;2022-08-16T05:25:45;3.53;;;2.38;;
45730;SDS011;31440;48.584;13.460;2022-08-16T05:28:11;5.38;;;2.80;;
45730;SDS011;31440;48.584;13.460;2022-08-16T05:30:40;3.85;;;2.58;;
45730;SDS011;31440;48.584;13.460;2022-08-16T05:33:13;3.97;;;2.60;;
45730;SDS011;31440;48.584;13.460;2022-08-16T05:35:38;4.50;;;2.50;;
45730;SDS011;31440;48.584;13.460;2022-08-16T05:38:10;3.95;;;2.28;;
45730;SDS011;31440;48.584;13.460;2022-08-16T05:40:36;3.35;;;2.40;;
45730;SDS011;31440;48.584;13.460;2022-08-16T05:43:02;3.95;;;2.65;;
45730;SDS011;31440;48.584;13.460;2022-08-16T05:45:28;4.68;;;2.30;;
45730;SDS011;31440;48.584;13.460;2022-08-16T05:47:57;2.42;;;2.20;;
45730;SDS011;31440;48.584;13.460;2022-08-16T05:50:23;3.85;;;2.13;;
45730;SDS011;31440;48.584;13.460;2022-08-16T05:52:50;5.43;;;2.45;;
45730;SDS011;31440;48.584;13.460;2022-08-16T05:55:17;3.47;;;2.83;;
45730;SDS011;31440;48.584;13.460;2022-08-16T05:57:43;2.95;;;2.22;;
45730;SDS011;31440;48.584;13.460;2022-08-16T06:00:10;4.80;;;2.97;;
45730;SDS011;31440;48.584;13.460;2022-08-16T06:02:39;4.47;;;2.33;;
45730;SDS011;31440;48.584;13.460;2022-08-16T06:05:18;3.45;;;2.55;;
45730;SDS011;31440;48.584;13.460;2022-08-16T06:07:44;3.83;;;2.40;;
45730;SDS011;31440;48.584;13.460;2022-08-16T06:10:20;2.63;;;2.25;;
45730;SDS011;31440;48.584;13.460;2022-08-16T06:12:46;4.03;;;2.67;;
45730;SDS011;31440;48.584;13.460;2022-08-16T06:15:15;3.65;;;3.08;;
45730;SDS011;31440;48.584;13.460;2022-08-16T06:17:43;2.58;;;2.25;;
45730;SDS011;31440;48.584;13.460;2022-08-16T06:20:15;3.47;;;2.78;;
45730;SDS011;31440;48.584;13.460;2022-08-16T06:22:45;3.85;;;2.20;;
45730;SDS011;31440;48.584;13.460;2022-08-16T06:25:12;2.85;;;2.22;;
45730;SDS011;31440;48.584;13.460;2022-08-16T06:27:38;2.47;;;2.25;;
45730;SDS011;31440;48.584;13.460;2022-08-16T06:30:08;5.00;;;2.58;;
45730;SDS011;31440;48.584;13.460;2022-08-16T06:32:35;4.88;;;2.30;;
45730;SDS011;31440;48.584;13.460;2022-08-16T06:35:02;3.30;;;2.40;;
45730;SDS011;31440;48.584;13.460;2022-08-16T06:37:31;3.47;;;2.30;;
45730;SDS011;31440;48.584;13.460;2022-08-16T06:39:57;4.10;;;2.53;;
45730;SDS011;31440;48.584;13.460;2022-08-16T06:42:29;3.50;;;2.08;;
45730;SDS011;31440;48.584;13.460;2022-08-16T06:45:02;3.40;;;1.90;;
45730;SDS011;31440;48.584;13.460;2022-08-16T06:47:38;2.50;;;2.30;;
45730;SDS011;31440;48.584;13.460;2022-08-16T06:50:04;9.18;;;2.45;;
45730;SDS011;31440;48.584;13.460;2022-08-16T06:52:36;3.83;;;2.05;;
45730;SDS011;31440;48.584;13.460;2022-08-16T06:55:05;8.85;;;2.40;;
45730;SDS011;31440;48.584;13.460;2022-08-16T06:57:32;3.22;;;2.33;;
45730;SDS011;31440;48.584;13.460;2022-08-16T06:59:58;2.30;;;2.00;;
45730;SDS011;31440;48.584;13.460;2022-08-16T07:02:32;2.03;;;1.83;;
45730;SDS011;31440;48.584;13.460;2022-08-16T07:04:58;1.85;;;1.75;;
45730;SDS011;31440;48.584;13.460;2022-08-16T07:07:24;3.20;;;2.00;;
45730;SDS011;31440;48.584;13.460;2022-08-16T07:09:49;2.38;;;1.65;;
45730;SDS011;31440;48.584;13.460;2022-08-16T07:12:15;2.40;;;1.90;;
45730;SDS011;31440;48.584;13.460;2022-08-16T07:14:43;2.70;;;2.13;;
45730;SDS011;31440;48.584;13.460;2022-08-16T07:17:12;2.85;;;2.00;;
45730;SDS011;31440;48.584;13.460;2022-08-16T07:19:48;2.70;;;1.60;;
45730;SDS011;31440;48.584;13.460;2022-08-16T07:22:15;1.77;;;1.48;;
45730;SDS011;31440;48.584;13.460;2022-08-16T07:24:42;2.05;;;1.60;;
45730;SDS011;31440;48.584;13.460;2022-08-16T07:27:08;4.00;;;1.92;;
45730;SDS011;31440;48.584;13.460;2022-08-16T07:29:35;2.90;;;1.85;;
45730;SDS011;31440;48.584;13.460;2022-08-16T07:32:02;1.65;;;1.48;;
45730;SDS011;31440;48.584;13.460;2022-08-16T07:34:30;3.08;;;1.90;;
45730;SDS011;31440;48.584;13.460;2022-08-16T07:36:56;2.22;;;1.90;;
45730;SDS011;31440;48.584;13.460;2022-08-16T07:39:28;3.83;;;2.15;;
45730;SDS011;31440;48.584;13.460;2022-08-16T07:41:54;2.58;;;1.77;;
45730;SDS011;31440;48.584;13.460;2022-08-16T07:44:20;2.88;;;1.63;;
45730;SDS011;31440;48.584;13.460;2022-08-16T07:46:47;5.13;;;1.55;;
45730;SDS011;31440;48.584;13.460;2022-08-16T07:49:16;7.53;;;2.53;;
45730;SDS011;31440;48.584;13.460;2022-08-16T07:51:43;4.53;;;2.13;;
45730;SDS011;31440;48.584;13.460;2022-08-16T07:54:09;2.17;;;1.67;;
45730;SDS011;31440;48.584;13.460;2022-08-16T07:56:38;3.45;;;1.70;;
45730;SDS011;31440;48.584;13.460;2022-08-16T07:59:04;1.67;;;1.58;;
45730;SDS011;31440;48.584;13.460;2022-08-16T08:01:31;2.38;;;2.03;;
45730;SDS011;31440;48.584;13.460;2022-08-16T08:03:58;2.63;;;1.90;;
45730;SDS011;31440;48.584;13.460;2022-08-16T08:06:32;2.38;;;1.75;;
45730;SDS011;31440;48.584;13.460;2022-08-16T08:09:03;3.17;;;2.63;;
45730;SDS011;31440;48.584;13.460;2022-08-16T08:11:29;2.88;;;1.95;;
45730;SDS011;31440;48.584;13.460;2022-08-16T08:13:58;4.20;;;2.22;;
45730;SDS011;31440;48.584;13.460;2022-08-16T08:16:25;2.05;;;1.70;;
45730;SDS011;31440;48.584;13.460;2022-08-16T08:18:51;2.35;;;1.80;;
45730;SDS011;31440;48.584;13.460;2022-08-16T08:21:20;2.35;;;2.03;;
45730;SDS011;31440;48.584;13.460;2022-08-16T08:23:46;2.20;;;1.70;;
45730;SDS011;31440;48.584;13.460;2022-08-16T08:26:13;2.35;;;1.60;;
45730;SDS011;31440;48.584;13.460;2022-08-16T08:28:39;2.00;;;1.77;;
45730;SDS011;31440;48.584;13.460;2022-08-16T08:31:06;2.55;;;1.55;;
45730;SDS011;31440;48.584;13.460;2022-08-16T08:33:37;1.80;;;1.50;;
45730;SDS011;31440;48.584;13.460;2022-08-16T08:36:04;2.78;;;1.85;;
45730;SDS011;31440;48.584;13.460;2022-08-16T08:38:31;2.13;;;1.58;;
45730;SDS011;31440;48.584;13.460;2022-08-16T08:40:59;2.47;;;1.90;;
45730;SDS011;31440;48.584;13.460;2022-08-16T08:43:25;3.28;;;1.90;;
45730;SDS011;31440;48.584;13.460;2022-08-16T08:45:55;1.75;;;1.65;;
45730;SDS011;31440;48.584;13.460;2022-08-16T08:48:23;3.00;;;1.77;;
45730;SDS011;31440;48.584;13.460;2022-08-16T08:50:49;2.88;;;1.60;;
45730;SDS011;31440;48.584;13.460;2022-08-16T08:53:15;1.63;;;1.52;;
45730;SDS011;31440;48.584;13.460;2022-08-16T08:55:41;3.70;;;1.60;;
45730;SDS011;31440;48.584;13.460;2022-08-16T08:58:08;6.28;;;1.65;;
45730;SDS011;31440;48.584;13.460;2022-08-16T09:00:46;4.57;;;1.98;;
45730;SDS011;31440;48.584;13.460;2022-08-16T09:03:12;3.13;;;1.80;;
45730;SDS011;31440;48.584;13.460;2022-08-16T09:05:39;2.38;;;1.50;;
45730;SDS011;31440;48.584;13.460;2022-08-16T09:08:08;6.85;;;2.05;;
45730;SDS011;31440;48.584;13.460;2022-08-16T09:10:43;2.50;;;1.70;;
45730;SDS011;31440;48.584;13.460;2022-08-16T09:13:09;2.95;;;1.67;;
45730;SDS011;31440;48.584;13.460;2022-08-16T09:15:43;1.88;;;1.30;;
45730;SDS011;31440;48.584;13.460;2022-08-16T09:18:09;2.45;;;1.48;;
45730;SDS011;31440;48.584;13.460;2022-08-16T09:20:34;2.05;;;1.60;;
45730;SDS011;31440;48.584;13.460;2022-08-16T09:23:00;2.40;;;1.70;;
45730;SDS011;31440;48.584;13.460;2022-08-16T09:25:32;3.50;;;2.17;;
45730;SDS011;31440;48.584;13.460;2022-08-16T09:27:59;1.90;;;1.60;;
45730;SDS011;31440;48.584;13.460;2022-08-16T09:30:27;2.63;;;1.90;;
45730;SDS011;31440;48.584;13.460;2022-08-16T09:32:53;2.38;;;1.80;;
45730;SDS011;31440;48.584;13.460;2022-08-16T09:35:20;2.08;;;1.52;;
45730;SDS011;31440;48.584;13.460;2022-08-16T09:37:46;4.65;;;1.65;;
45730;SDS011;31440;48.584;13.460;2022-08-16T09:40:12;2.70;;;1.65;;
45730;SDS011;31440;48.584;13.460;2022-08-16T09:42:38;4.22;;;1.77;;
45730;SDS011;31440;48.584;13.460;2022-08-16T09:45:05;5.45;;;1.45;;
45730;SDS011;31440;48.584;13.460;2022-08-16T09:47:33;4.05;;;2.00;;
45730;SDS011;31440;48.584;13.460;2022-08-16T09:52:30;2.63;;;1.80;;
45730;SDS011;31440;48.584;13.460;2022-08-16T09:54:56;1.98;;;1.55;;
45730;SDS011;31440;48.584;13.460;2022-08-16T09:57:21;2.33;;;1.77;;
45730;SDS011;31440;48.584;13.460;2022-08-16T09:59:47;3.20;;;1.50;;
45730;SDS011;31440;48.584;13.460;2022-08-16T10:02:12;1.73;;;1.30;;
45730;SDS011;31440;48.584;13.460;2022-08-16T10:04:38;2.35;;;1.65;;
45730;SDS011;31440;48.584;13.460;2022-08-16T10:07:03;2.03;;;1.70;;
45730;SDS011;31440;48.584;13.460;2022-08-16T10:09:29;5.95;;;1.75;;
45730;SDS011;31440;48.584;13.460;2022-08-16T10:11:55;4.40;;;1.80;;
45730;SDS011;31440;48.584;13.460;2022-08-16T10:14:38;2.65;;;1.75;;
45730;SDS011;31440;48.584;13.460;2022-08-16T10:17:04;2.10;;;1.50;;
45730;SDS011;31440;48.584;13.460;2022-08-16T10:19:30;2.05;;;1.45;;
45730;SDS011;31440;48.584;13.460;2022-08-16T10:21:57;2.28;;;1.58;;
45730;SDS011;31440;48.584;13.460;2022-08-16T10:24:23;1.50;;;1.40;;
45730;SDS011;31440;48.584;13.460;2022-08-16T10:26:48;3.15;;;1.77;;
45730;SDS011;31440;48.584;13.460;2022-08-16T10:29:14;2.53;;;1.60;;
45730;SDS011;31440;48.584;13.460;2022-08-16T10:31:40;2.67;;;1.60;;
45730;SDS011;31440;48.584;13.460;2022-08-16T10:34:07;1.95;;;1.52;;
45730;SDS011;31440;48.584;13.460;2022-08-16T10:36:32;3.47;;;1.50;;
45730;SDS011;31440;48.584;13.460;2022-08-16T10:38:58;6.50;;;1.70;;
45730;SDS011;31440;48.584;13.460;2022-08-16T10:41:24;2.40;;;1.45;;
45730;SDS011;31440;48.584;13.460;2022-08-16T10:43:49;3.08;;;1.40;;
45730;SDS011;31440;48.584;13.460;2022-08-16T10:46:15;3.55;;;1.40;;
45730;SDS011;31440;48.584;13.460;2022-08-16T10:48:42;9.32;;;1.70;;
45730;SDS011;31440;48.584;13.460;2022-08-16T10:51:09;4.00;;;1.50;;
45730;SDS011;31440;48.584;13.460;2022-08-16T10:53:35;1.40;;;1.30;;
45730;SDS011;31440;48.584;13.460;2022-08-16T10:56:03;1.75;;;1.48;;
45730;SDS011;31440;48.584;13.460;2022-08-16T10:58:30;3.92;;;1.52;;
45730;SDS011;31440;48.584;13.460;2022-08-16T11:00:57;2.42;;;1.48;;
45730;SDS011;31440;48.584;13.460;2022-08-16T11:03:23;1.80;;;1.10;;
45730;SDS011;31440;48.584;13.460;2022-08-16T11:05:50;3.80;;;1.60;;
45730;SDS011;31440;48.584;13.460;2022-08-16T11:08:16;3.97;;;1.60;;
45730;SDS011;31440;48.584;13.460;2022-08-16T11:10:43;1.50;;;1.40;;
45730;SDS011;31440;48.584;13.460;2022-08-16T11:13:11;5.38;;;1.33;;
45730;SDS011;31440;48.584;13.460;2022-08-16T11:15:39;4.03;;;1.25;;
45730;SDS011;31440;48.584;13.460;2022-08-16T11:18:07;5.65;;;1.58;;
45730;SDS011;31440;48.584;13.460;2022-08-16T11:20:34;2.55;;;1.40;;
45730;SDS011;31440;48.584;13.460;2022-08-16T11:23:00;3.63;;;1.70;;
45730;SDS011;31440;48.584;13.460;2022-08-16T11:25:26;2.80;;;1.40;;
45730;SDS011;31440;48.584;13.460;2022-08-16T11:27:54;1.55;;;1.33;;
45730;SDS011;31440;48.584;13.460;2022-08-16T11:30:21;1.70;;;1.35;;
45730;SDS011;31440;48.584;13.460;2022-08-16T11:32:49;2.70;;;1.38;;
45730;SDS011;31440;48.584;13.460;2022-08-16T11:35:24;3.58;;;1.90;;
45730;SDS011;31440;48.584;13.460;2022-08-16T11:37:52;2.90;;;1.48;;
45730;SDS011;31440;48.584;13.460;2022-08-16T11:40:21;3.47;;;1.65;;
45730;SDS011;31440;48.584;13.460;2022-08-16T11:42:47;3.40;;;1.17;;
45730;SDS011;31440;48.584;13.460;2022-08-16T11:45:13;2.92;;;1.48;;
45730;SDS011;31440;48.584;13.460;2022-08-16T11:47:39;2.63;;;1.40;;
45730;SDS011;31440;48.584;13.460;2022-08-16T11:50:06;7.78;;;1.45;;
45730;SDS011;31440;48.584;13.460;2022-08-16T11:52:34;5.45;;;2.05;;
45730;SDS011;31440;48.584;13.460;2022-08-16T11:55:02;4.13;;;1.50;;
45730;SDS011;31440;48.584;13.460;2022-08-16T11:57:30;4.00;;;1.50;;
45730;SDS011;31440;48.584;13.460;2022-08-16T11:59:55;3.25;;;1.50;;
45730;SDS011;31440;48.584;13.460;2022-08-16T12:02:21;3.10;;;1.40;;
45730;SDS011;31440;48.584;13.460;2022-08-16T12:04:46;1.42;;;1.30;;
45730;SDS011;31440;48.584;13.460;2022-08-16T12:07:12;2.13;;;1.30;;
45730;SDS011;31440;48.584;13.460;2022-08-16T12:09:38;1.50;;;1.30;;
45730;SDS011;31440;48.584;13.460;2022-08-16T12:12:04;1.65;;;1.50;;
45730;SDS011;31440;48.584;13.460;2022-08-16T12:14:31;1.33;;;1.23;;
45730;SDS011;31440;48.584;13.460;2022-08-16T12:16:58;2.97;;;1.15;;
45730;SDS011;31440;48.584;13.460;2022-08-16T12:19:26;3.83;;;1.50;;
45730;SDS011;31440;48.584;13.460;2022-08-16T12:21:52;3.10;;;1.50;;
45730;SDS011;31440;48.584;13.460;2022-08-16T12:24:18;5.13;;;1.63;;
45730;SDS011;31440;48.584;13.460;2022-08-16T12:26:44;2.67;;;1.33;;
45730;SDS011;31440;48.584;13.460;2022-08-16T12:29:09;4.90;;;2.25;;
45730;SDS011;31440;48.584;13.460;2022-08-16T12:31:35;3.80;;;1.48;;
45730;SDS011;31440;48.584;13.460;2022-08-16T12:34:01;1.35;;;1.25;;
45730;SDS011;31440;48.584;13.460;2022-08-16T12:36:27;1.45;;;1.35;;
45730;SDS011;31440;48.584;13.460;2022-08-16T12:38:53;2.92;;;1.50;;
45730;SDS011;31440;48.584;13.460;2022-08-16T12:41:21;2.65;;;1.25;;
45730;SDS011;31440;48.584;13.460;2022-08-16T12:43:47;2.22;;;1.38;;
45730;SDS011;31440;48.584;13.460;2022-08-16T12:46:13;2.50;;;1.23;;
45730;SDS011;31440;48.584;13.460;2022-08-16T12:48:38;2.33;;;1.30;;
45730;SDS011;31440;48.584;13.460;2022-08-16T12:51:24;1.20;;;1.10;;
45730;SDS011;31440;48.584;13.460;2022-08-16T12:54:00;2.70;;;1.42;;
45730;SDS011;31440;48.584;13.460;2022-08-16T12:56:32;2.30;;;1.30;;
45730;SDS011;31440;48.584;13.460;2022-08-16T12:59:02;1.45;;;1.35;;
45730;SDS011;31440;48.584;13.460;2022-08-16T13:01:32;2.95;;;1.40;;
45730;SDS011;31440;48.584;13.460;2022-08-16T13:03:58;1.70;;;1.35;;
45730;SDS011;31440;48.584;13.460;2022-08-16T13:06:25;3.25;;;1.17;;
45730;SDS011;31440;48.584;13.460;2022-08-16T13:08:52;1.55;;;1.38;;
45730;SDS011;31440;48.584;13.460;2022-08-16T13:11:22;2.60;;;0.98;;
45730;SDS011;31440;48.584;13.460;2022-08-16T13:13:53;1.20;;;1.10;;
45730;SDS011;31440;48.584;13.460;2022-08-16T13:16:19;1.67;;;1.23;;
45730;SDS011;31440;48.584;13.460;2022-08-16T13:18:45;2.45;;;1.27;;
45730;SDS011;31440;48.584;13.460;2022-08-16T13:21:10;1.38;;;1.27;;
45730;SDS011;31440;48.584;13.460;2022-08-16T13:23:36;1.67;;;1.23;;
45730;SDS011;31440;48.584;13.460;2022-08-16T13:26:03;1.40;;;1.30;;
45730;SDS011;31440;48.584;13.460;2022-08-16T13:28:29;1.08;;;0.95;;
45730;SDS011;31440;48.584;13.460;2022-08-16T13:30:55;2.65;;;1.00;;
45730;SDS011;31440;48.584;13.460;2022-08-16T13:33:27;8.70;;;1.23;;
45730;SDS011;31440;48.584;13.460;2022-08-16T13:35:55;2.13;;;1.52;;
45730;SDS011;31440;48.584;13.460;2022-08-16T13:38:26;2.08;;;1.10;;
45730;SDS011;31440;48.584;13.460;2022-08-16T13:40:53;6.88;;;1.45;;
45730;SDS011;31440;48.584;13.460;2022-08-16T13:43:19;4.28;;;1.50;;
45730;SDS011;31440;48.584;13.460;2022-08-16T13:45:47;3.15;;;1.33;;
45730;SDS011;31440;48.584;13.460;2022-08-16T13:48:13;1.27;;;1.05;;
45730;SDS011;31440;48.584;13.460;2022-08-16T13:50:39;1.20;;;1.10;;
45730;SDS011;31440;48.584;13.460;2022-08-16T13:53:05;3.17;;;1.23;;
45730;SDS011;31440;48.584;13.460;2022-08-16T13:55:30;2.05;;;0.93;;
45730;SDS011;31440;48.584;13.460;2022-08-16T13:57:56;1.65;;;1.30;;
45730;SDS011;31440;48.584;13.460;2022-08-16T14:00:21;2.30;;;1.20;;
45730;SDS011;31440;48.584;13.460;2022-08-16T14:02:47;3.42;;;1.65;;
45730;SDS011;31440;48.584;13.460;2022-08-16T14:05:13;2.63;;;1.00;;
45730;SDS011;31440;48.584;13.460;2022-08-16T14:07:39;2.10;;;1.35;;
45730;SDS011;31440;48.584;13.460;2022-08-16T14:10:05;1.77;;;1.27;;
45730;SDS011;31440;48.584;13.460;2022-08-16T14:12:32;11.95;;;2.30;;
45730;SDS011;31440;48.584;13.460;2022-08-16T14:14:59;4.68;;;1.25;;
45730;SDS011;31440;48.584;13.460;2022-08-16T14:17:26;2.90;;;1.05;;
45730;SDS011;31440;48.584;13.460;2022-08-16T14:19:52;2.50;;;1.45;;
45730;SDS011;31440;48.584;13.460;2022-08-16T14:22:23;3.53;;;1.58;;
45730;SDS011;31440;48.584;13.460;2022-08-16T14:24:54;6.68;;;1.20;;
45730;SDS011;31440;48.584;13.460;2022-08-16T14:27:22;1.80;;;1.02;;
45730;SDS011;31440;48.584;13.460;2022-08-16T14:29:49;4.03;;;1.25;;
45730;SDS011;31440;48.584;13.460;2022-08-16T14:32:16;2.85;;;1.17;;
45730;SDS011;31440;48.584;13.460;2022-08-16T14:34:42;1.77;;;1.27;;
45730;SDS011;31440;48.584;13.460;2022-08-16T14:37:08;1.52;;;1.42;;
45730;SDS011;31440;48.584;13.460;2022-08-16T14:39:34;1.73;;;1.30;;
45730;SDS011;31440;48.584;13.460;2022-08-16T14:42:07;1.45;;;1.20;;